Latest Weather Observations for Canberra

IDN60901

Issued at 12:05 am EDT Sunday 2 November 2014 (issued every 10 minutes, with the page automatically refreshed every 10 minutes)

About weather observations | Map of Canberra area stations | Latest observations for Canberra area | Other Formats
Station Details ID: 070351 Name: CANBERRA AIRPORT Lat: -35.31 Lon: 149.20 Height: 577.05 m
Data from the previous 72 hours. | See also: Recent months at Canberra
Date/Time
EDT
Tmp

°C
App
Tmp
°C
Dew
Point
°C
Rel
Hum
%
Delta-T

°C
Wind Press
QNH
hPa
Press
MSL
hPa
Rain
since
9 am
mm
Dir
 
Spd
km/h
Gust
km/h
Spd
kts
Gust
kts
02/12:00am 9.0 4.5 -0.3 52 3.8 W 13 19 7 10 1013.2 1011.9 0.2
 
Date/Time
EDT
Tmp

°C
App
Tmp
°C
Dew
Point
°C
Rel
Hum
%
Delta-T

°C
Wind Press
QNH
hPa
Press
MSL
hPa
Rain
since
9 am
mm
Dir
 
Spd
km/h
Gust
km/h
Spd
kts
Gust
kts
01/11:30pm 10.5 5.3 0.3 49 4.3 WNW 17 20 9 11 1013.1 - 0.2
01/11:00pm 11.5 4.7 0.6 47 4.7 WNW 26 35 14 19 1012.8 - 0.2
01/10:30pm 12.4 4.5 0.8 45 5.0 W 32 43 17 23 1012.2 - 0.2
01/10:11pm 12.8 5.5 0.2 42 5.4 W 28 48 15 26 1011.9 - 0.2
01/10:00pm 13.2 5.8 -0.4 39 5.8 W 28 41 15 22 1011.6 - 0.2
01/09:30pm 13.4 6.0 -1.0 37 6.1 WNW 28 39 15 21 1011.1 - 0.2
01/09:00pm 14.1 6.9 0.4 39 6.0 WNW 28 46 15 25 1010.3 1008.9 0.2
01/08:30pm 14.4 6.9 1.3 41 5.9 W 30 48 16 26 1009.7 - 0.2
01/08:00pm 14.8 6.8 0.3 37 6.4 W 32 50 17 27 1008.9 - 0.2
01/07:46pm 14.9 7.2 0.0 36 6.5 WNW 30 48 16 26 1008.6 - 0.2
01/07:30pm 15.5 7.5 1.6 39 6.3 W 33 46 18 25 1008.0 - 0.2
01/07:01pm 16.2 9.2 4.3 45 5.7 WNW 30 54 16 29 1007.0 - 0.2
01/07:00pm 16.2 9.7 4.6 46 5.6 WNW 28 39 15 21 1007.0 - 0.2
01/06:30pm 17.0 9.9 6.2 49 5.4 W 33 46 18 25 1006.2 - 0.2
01/06:07pm 17.2 9.7 6.4 49 5.5 W 35 54 19 29 1005.7 - 0.2
01/06:00pm 17.5 9.2 6.1 47 5.8 WNW 39 54 21 29 1005.6 1004.2 0.2
01/05:30pm 18.2 11.2 6.7 47 5.9 WNW 33 52 18 28 1005.4 - 0.2
01/05:25pm 18.3 11.3 6.8 47 5.9 WNW 33 52 18 28 1005.3 - 0.2
01/05:00pm 18.6 12.2 8.6 52 5.3 W 32 48 17 26 1004.9 - 0.2
01/04:30pm 19.0 12.5 10.3 57 4.8 WNW 35 54 19 29 1004.6 - 0.2
01/04:02pm 18.7 11.7 10.0 57 4.8 WNW 37 56 20 30 1004.2 - 0.2
01/04:00pm 19.0 11.8 10.6 58 4.7 WNW 39 56 21 30 1004.2 - 0.2
01/03:50pm 19.2 13.6 12.0 63 4.1 WNW 33 57 18 31 1004.1 - 0.2
01/03:30pm 18.8 12.7 11.9 64 3.9 WNW 35 52 19 28 1004.2 - 0.2
01/03:00pm 20.5 14.8 13.0 62 4.4 WNW 35 61 19 33 1004.1 1002.7 0.2
01/02:36pm 19.3 13.4 12.3 64 4.0 WNW 35 54 19 29 1004.0 - 0.2
01/02:30pm 19.5 14.0 12.0 62 4.3 WNW 32 48 17 26 1004.0 - 0.2
01/02:14pm 20.6 15.3 12.6 60 4.6 WNW 32 50 17 27 1004.0 - 0.2
01/02:00pm 20.2 16.6 14.3 69 3.5 W 26 37 14 20 1004.1 - 0.2
01/01:33pm 18.3 11.1 13.0 71 3.1 WNW 43 61 23 33 1004.6 - 0.2
01/01:30pm 18.4 9.9 11.9 66 3.7 W 48 63 26 34 1004.5 - 0.0
01/01:00pm 23.9 15.3 8.7 38 8.4 WNW 44 65 24 35 1002.9 - 0.0
01/12:58pm 23.8 15.3 8.6 38 8.4 WNW 43 65 23 35 1002.7 - 0.0
01/12:32pm 25.4 17.4 10.4 39 8.6 WNW 43 56 23 30 1002.1 - 0.0
01/12:30pm 25.2 17.8 9.9 38 8.7 NW 39 54 21 29 1002.0 - 0.0
01/12:00pm 23.6 17.1 12.9 51 6.3 NW 39 57 21 31 1003.0 1001.5 0.0
01/11:49am 22.5 14.9 11.9 51 6.1 NW 43 61 23 33 1003.4 - 0.0
01/11:30am 23.5 15.7 11.9 48 6.7 NW 44 59 24 32 1003.1 - 0.0
01/11:04am 24.6 16.6 12.5 46 7.1 NNW 46 65 25 35 1003.2 - 0.0
01/11:00am 24.6 16.3 12.5 46 7.1 NW 48 65 26 35 1003.1 - 0.0
01/10:47am 24.5 18.1 13.1 49 6.8 NW 39 57 21 31 1003.2 - 0.0
01/10:30am 24.1 16.8 12.7 49 6.7 NW 43 54 23 29 1003.4 - 0.0
01/10:03am 23.1 15.2 12.7 52 6.1 NNW 46 65 25 35 1004.0 - 0.0
01/10:00am 23.5 15.7 13.1 52 6.2 NNW 46 61 25 33 1004.1 - 0.0
01/09:46am 23.4 17.7 13.0 52 6.1 NW 35 59 19 32 1004.5 - 0.0
01/09:30am 21.8 15.7 12.9 57 5.2 NNW 37 48 20 26 1005.0 - 0.0
01/09:00am 21.8 16.3 12.4 55 5.5 NNW 33 46 18 25 1005.4 1004.0 0.0
01/08:30am 21.4 15.9 12.3 56 5.3 NW 33 52 18 28 1005.8 - 0.0
01/08:25am 21.0 16.3 11.9 56 5.2 NW 28 48 15 26 1005.4 - 0.0
01/08:00am 21.4 17.0 11.7 54 5.6 NNW 26 35 14 19 1004.6 - 0.0
01/07:30am 20.7 18.0 11.6 56 5.2 NNW 17 24 9 13 1005.1 - 0.0
01/07:00am 19.7 18.1 11.5 59 4.6 N 11 17 6 9 1005.2 - 0.0
01/06:30am 18.2 17.3 11.5 65 3.8 ENE 7 13 4 7 1005.3 - 0.0
01/06:00am 18.4 16.6 11.0 62 4.1 NNW 11 15 6 8 1005.2 1003.8 0.0
01/05:30am 19.2 15.8 11.3 60 4.4 NNW 20 28 11 15 1005.2 - 0.0
01/05:00am 19.9 16.6 10.9 56 5.0 N 19 26 10 14 1005.1 - 0.0
01/04:30am 18.3 15.2 10.2 59 4.4 NNW 17 22 9 12 1005.4 - 0.0
01/04:00am 19.8 16.3 10.2 54 5.3 N 19 30 10 16 1005.5 - 0.0
01/03:30am 20.8 16.1 9.4 48 6.3 N 24 33 13 18 1005.6 - 0.0
01/03:00am 20.3 14.8 7.7 44 6.7 N 26 37 14 20 1006.2 1004.9 0.0
01/02:30am 21.3 15.2 6.4 38 7.8 NNW 28 37 15 20 1006.4 - 0.0
01/02:00am 20.7 15.9 5.5 37 7.7 NW 20 28 11 15 1006.5 - 0.0
01/01:30am 15.5 13.4 6.8 56 4.4 N 7 11 4 6 1006.7 - 0.0
01/01:00am 15.3 13.1 6.1 54 4.6 SE 7 7 4 4 1006.6 - 0.0
01/12:30am 15.6 13.5 5.8 52 4.9 NE 6 7 3 4 1006.9 - 0.0
01/12:00am 15.6 12.9 3.7 45 5.7 SE 7 9 4 5 1007.1 1006.5 0.0
 
Date/Time
EDT
Tmp

°C
App
Tmp
°C
Dew
Point
°C
Rel
Hum
%
Delta-T

°C
Wind Press
QNH
hPa
Press
MSL
hPa
Rain
since
9 am
mm
Dir
 
Spd
km/h
Gust
km/h
Spd
kts
Gust
kts
31/11:30pm 16.7 13.9 3.4 41 6.3 SE 7 11 4 6 1007.4 - 0.0
31/11:00pm 16.4 12.6 4.1 44 5.9 ESE 13 15 7 8 1007.7 - 0.0
31/10:30pm 18.7 16.2 3.7 37 7.3 SSE 6 7 3 4 1007.9 - 0.0
31/10:00pm 18.8 16.2 4.2 38 7.2 SSW 7 9 4 5 1008.0 - 0.0
31/09:30pm 20.9 17.4 3.6 32 8.5 N 11 13 6 7 1007.8 - 0.0
31/09:00pm 22.2 18.9 2.3 27 9.7 NNE 9 15 5 8 1007.7 1007.1 0.0
31/08:30pm 23.0 19.7 2.5 26 10.0 NNE 9 11 5 6 1007.6 - 0.0
31/08:00pm 22.3 18.6 2.4 27 9.7 NNE 11 13 6 7 1007.6 - 0.0
31/07:30pm 24.3 20.0 1.2 22 11.1 N 13 17 7 9 1007.7 - 0.0
31/07:00pm 27.2 21.5 0.8 18 12.9 NNW 20 32 11 17 1007.7 - 0.0
31/06:30pm 28.4 20.2 -0.7 15 14.0 NW 32 41 17 22 1007.7 - 0.0
31/06:00pm 29.7 22.7 -0.6 14 14.7 NW 26 33 14 18 1007.8 1007.2 0.0
31/05:30pm 29.8 20.8 -2.6 12 15.2 NW 35 46 19 25 1007.9 - 0.0
31/05:06pm 30.3 21.7 -2.2 12 15.4 NW 33 52 18 28 1007.9 - 0.0
31/05:00pm 30.5 21.2 -2.1 12 15.5 NNW 37 52 20 28 1007.8 - 0.0
31/04:30pm 30.9 22.4 -1.8 12 15.7 NW 33 44 18 24 1008.0 - 0.0
31/04:00pm 29.9 22.1 -0.5 14 14.8 NW 30 39 16 21 1008.4 - 0.0
31/03:30pm 30.0 22.3 -0.4 14 14.8 NW 30 41 16 22 1008.8 - 0.0
31/03:08pm 31.3 24.1 0.6 14 15.4 WNW 28 52 15 28 1009.1 - 0.0
31/03:00pm 30.5 24.4 2.7 17 14.4 NW 24 33 13 18 1009.2 1008.6 0.0
31/02:30pm 29.9 22.2 2.2 17 14.1 WNW 32 50 17 27 1010.0 - 0.0
31/02:06pm 30.3 23.6 3.4 18 14.0 NW 28 50 15 27 1010.5 - 0.0
31/02:00pm 29.7 23.1 4.4 20 13.4 W 28 35 15 19 1010.6 - 0.0
31/01:30pm 28.2 21.8 5.1 23 12.2 NW 28 35 15 19 1011.2 - 0.0
31/01:00pm 28.7 20.9 4.9 22 12.6 NW 35 50 19 27 1011.5 - 0.0
31/12:30pm 28.2 20.8 5.1 23 12.2 NW 33 44 18 24 1012.1 - 0.0
31/12:00pm 26.5 19.5 4.3 24 11.5 NNW 30 41 16 22 1012.7 1012.1 0.0
31/11:30am 25.9 19.4 4.9 26 10.9 NNW 28 32 15 17 1013.1 - 0.0
31/11:00am 24.8 21.0 5.6 29 10.1 NNW 15 24 8 13 1013.7 - 0.0
31/10:30am 23.0 21.3 8.3 39 8.0 NNW 7 11 4 6 1014.4 - 0.0
31/10:00am 20.4 18.1 5.6 38 7.5 NW 7 9 4 5 1014.7 - 0.0
31/09:30am 19.1 17.9 6.6 44 6.4 ESE 2 7 1 4 1014.8 - 0.0
31/09:00am 16.9 15.9 7.5 54 4.9 ENE 2 7 1 4 1015.1 1014.6 0.0
31/08:30am 14.6 13.0 6.4 58 4.1 ENE 4 7 2 4 1015.3 - 0.0
31/08:00am 13.1 11.8 6.2 63 3.4 S 2 7 1 4 1015.3 - 0.0
31/07:30am 10.3 9.5 6.5 77 1.8 CALM 0 0 0 0 1015.0 - 0.0
31/07:00am 7.3 6.0 4.3 81 1.3 CALM 0 0 0 0 1014.7 - 0.0
31/06:30am 6.1 4.7 3.8 85 1.0 CALM 0 0 0 0 1014.3 - 0.0
31/06:00am 5.2 2.5 2.7 84 1.1 N 6 9 3 5 1014.0 1013.4 0.0
31/05:30am 6.0 4.6 3.5 84 1.1 CALM 0 0 0 0 1013.9 - 0.0
31/05:00am 6.6 5.3 3.9 83 1.2 CALM 0 0 0 0 1013.7 - 0.0
31/04:30am 6.6 3.9 3.6 81 1.3 N 7 7 4 4 1013.7 - 0.0
31/04:00am 6.8 5.4 3.4 79 1.5 CALM 0 0 0 0 1013.8 - 0.0
31/03:30am 6.7 5.2 3.0 77 1.6 CALM 0 7 0 4 1014.0 - 0.0
31/03:00am 7.5 6.1 3.7 77 1.7 CALM 0 0 0 0 1013.9 1013.3 0.0
31/02:30am 7.3 5.9 3.4 76 1.7 CALM 0 0 0 0 1014.2 - 0.0
31/02:00am 7.6 4.9 3.5 75 1.8 N 7 7 4 4 1014.4 - 0.0
31/01:30am 8.1 6.4 3.8 74 1.9 SW 2 7 1 4 1014.8 - 0.0
31/01:00am 8.7 7.3 3.7 71 2.2 CALM 0 0 0 0 1015.1 - 0.0
31/12:30am 9.6 8.4 4.4 70 2.4 CALM 0 0 0 0 1015.1 - 0.0
31/12:00am 9.9 8.6 3.9 66 2.7 CALM 0 0 0 0 1015.1 1014.6 0.0
 
Date/Time
EDT
Tmp

°C
App
Tmp
°C
Dew
Point
°C
Rel
Hum
%
Delta-T

°C
Wind Press
QNH
hPa
Press
MSL
hPa
Rain
since
9 am
mm
Dir
 
Spd
km/h
Gust
km/h
Spd
kts
Gust
kts
30/11:30pm 10.5 9.2 4.0 64 3.0 CALM 0 0 0 0 1015.2 - 0.0
30/11:00pm 11.1 9.8 4.3 63 3.2 CALM 0 0 0 0 1015.2 - 0.0
30/10:30pm 11.5 10.3 4.7 63 3.2 CALM 0 0 0 0 1015.2 - 0.0
30/10:00pm 12.4 9.9 4.6 59 3.7 SSW 7 9 4 5 1015.0 - 0.0
30/09:30pm 11.7 9.1 4.2 60 3.5 S 7 9 4 5 1014.7 - 0.0
30/09:00pm 13.7 12.1 4.3 53 4.5 N 2 6 1 3 1014.4 1013.8 0.0
30/08:30pm 14.5 12.0 4.8 52 4.7 NE 7 9 4 5 1014.2 - 0.0
30/08:00pm 15.4 13.0 4.5 48 5.3 ENE 6 9 3 5 1014.0 - 0.0
30/07:53pm 15.6 13.7 3.1 43 5.9 NNW 2 7 1 4 1013.9 - 0.0
30/07:30pm 20.8 17.7 3.5 32 8.5 WNW 9 11 5 6 1013.9 - 0.0
30/07:00pm 23.0 19.3 4.5 30 9.4 W 13 17 7 9 1013.7 - 0.0
30/06:30pm 24.1 18.9 3.4 26 10.4 W 20 30 11 16 1013.4 - 0.0
30/06:00pm 24.6 18.2 3.3 25 10.7 W 26 35 14 19 1013.2 1012.7 0.0
30/05:30pm 25.0 18.9 3.0 24 11.0 WNW 24 35 13 19 1013.3 - 0.0
30/05:00pm 25.2 18.7 2.6 23 11.2 W 26 35 14 19 1013.2 - 0.0
30/04:30pm 25.6 18.5 3.5 24 11.2 WNW 30 43 16 23 1013.0 - 0.0
30/04:00pm 25.7 19.1 4.2 25 11.0 WNW 28 41 15 22 1012.9 - 0.0
30/03:30pm 26.3 19.8 4.7 25 11.2 WNW 28 39 15 21 1012.9 - 0.0
30/03:00pm 25.7 18.6 3.6 24 11.2 WNW 30 39 16 21 1013.2 1012.7 0.0
30/02:30pm 25.6 20.1 4.1 25 11.0 NNW 22 35 12 19 1013.5 - 0.0
30/02:00pm 25.4 19.1 4.0 25 10.9 WNW 26 35 14 19 1013.8 - 0.0
30/01:30pm 25.0 19.0 5.2 28 10.3 W 26 37 14 20 1014.3 - 0.0
30/01:00pm 23.9 18.1 4.3 28 10.0 NW 24 32 13 17 1014.5 - 0.0
30/12:30pm 23.5 18.4 4.0 28 9.8 WNW 20 33 11 18 1014.9 - 0.0
30/12:00pm 23.0 17.6 6.3 34 8.8 WNW 24 44 13 24 1015.4 1014.9 0.0
30/11:30am 22.1 18.2 7.1 38 7.9 WNW 17 24 9 13 1015.7 - 0.0
30/11:00am 20.4 16.0 6.7 41 7.1 WNW 19 30 10 16 1016.1 - 0.0
30/10:30am 20.0 15.9 6.0 40 7.2 NW 17 26 9 14 1016.2 - 0.0
30/10:00am 18.9 15.7 6.7 45 6.3 NW 13 19 7 10 1016.6 - 0.0
30/09:30am 17.2 14.4 8.4 56 4.6 NW 13 15 7 8 1016.5 - 0.0
30/09:00am 14.2 13.9 8.6 69 2.9 CALM 0 0 0 0 1016.6 1016.1 0.0
30/08:30am 12.3 11.7 7.6 73 2.4 CALM 0 0 0 0 1016.5 - 0.0
30/08:00am 10.4 9.8 7.6 83 1.4 CALM 0 0 0 0 1016.3 - 0.0
30/07:30am 8.9 7.2 7.4 90 0.7 E 6 7 3 4 1016.2 - 0.0
30/07:00am 7.0 5.7 5.9 93 0.5 SSE 2 6 1 3 1016.2 - 0.0
30/06:30am 5.3 2.6 3.6 89 0.7 SSE 7 9 4 5 1015.9 - 0.0
30/06:00am 6.1 4.9 4.4 89 0.8 CALM 0 0 0 0 1015.6 1015.0 0.0
30/05:30am 5.5 4.1 3.3 86 0.9 CALM 0 0 0 0 1015.3 - 0.0
30/05:00am 5.7 4.2 3.2 84 1.1 CALM 0 0 0 0 1015.2 - 0.0
30/04:30am 5.9 3.3 4.1 88 0.8 E 7 11 4 6 1015.1 - 0.0
30/04:00am 5.0 2.2 2.9 86 0.9 SE 7 9 4 5 1015.1 - 0.0
30/03:30am 6.4 4.0 4.4 87 0.9 S 6 9 3 5 1015.2 - 0.0
30/03:00am 6.4 5.0 3.6 82 1.2 CALM 0 4 0 2 1015.1 1014.6 0.0
30/02:30am 6.4 4.7 3.9 84 1.1 S 2 6 1 3 1015.2 - 0.0
30/02:00am 5.3 3.5 1.4 76 1.6 CALM 0 0 0 0 1015.6 - 0.0
30/01:30am 7.1 5.6 3.0 75 1.8 CALM 0 0 0 0 1015.8 - 0.0
30/01:00am 9.2 8.0 4.6 73 2.1 CALM 0 6 0 3 1016.2 - 0.0
30/12:30am 9.9 8.6 4.3 68 2.6 CALM 0 0 0 0 1016.3 - 0.0

Latest Capital City Observations: Canberra | Sydney | Melbourne | Brisbane | Adelaide | Perth | Hobart | Darwin

Other Formats:

Comma delimited format used in spreadsheet applications
http://www.bom.gov.au/fwo/IDN60903/IDN60903.94926.axf

JavaScript Object Notation format (JSON) in row-major order
http://www.bom.gov.au/fwo/IDN60903/IDN60903.94926.json